sensor_id;sensor_type;location;lat;lon;timestamp;P1;durP1;ratioP1;P2;durP2;ratioP2
21868;SDS011;11099;41.564;23.296;2023-04-23T00:00:47;6.15;;;5.65;;
21868;SDS011;11099;41.564;23.296;2023-04-23T00:03:13;6.15;;;5.65;;
21868;SDS011;11099;41.564;23.296;2023-04-23T00:05:41;5.97;;;5.47;;
21868;SDS011;11099;41.564;23.296;2023-04-23T00:08:09;7.40;;;6.47;;
21868;SDS011;11099;41.564;23.296;2023-04-23T00:10:35;7.03;;;6.47;;
21868;SDS011;11099;41.564;23.296;2023-04-23T00:13:01;6.65;;;6.05;;
21868;SDS011;11099;41.564;23.296;2023-04-23T00:15:28;6.30;;;5.60;;
21868;SDS011;11099;41.564;23.296;2023-04-23T00:17:54;6.57;;;6.00;;
21868;SDS011;11099;41.564;23.296;2023-04-23T00:20:20;6.50;;;6.00;;
21868;SDS011;11099;41.564;23.296;2023-04-23T00:22:46;6.88;;;6.18;;
21868;SDS011;11099;41.564;23.296;2023-04-23T00:25:12;6.47;;;5.90;;
21868;SDS011;11099;41.564;23.296;2023-04-23T00:27:38;7.82;;;7.15;;
21868;SDS011;11099;41.564;23.296;2023-04-23T00:30:04;7.22;;;6.60;;
21868;SDS011;11099;41.564;23.296;2023-04-23T00:32:30;6.88;;;6.28;;
21868;SDS011;11099;41.564;23.296;2023-04-23T00:34:56;7.28;;;6.57;;
21868;SDS011;11099;41.564;23.296;2023-04-23T00:37:21;7.95;;;7.25;;
21868;SDS011;11099;41.564;23.296;2023-04-23T00:39:47;6.30;;;5.80;;
21868;SDS011;11099;41.564;23.296;2023-04-23T00:42:12;6.90;;;6.32;;
21868;SDS011;11099;41.564;23.296;2023-04-23T00:44:41;7.53;;;6.82;;
21868;SDS011;11099;41.564;23.296;2023-04-23T00:47:06;6.45;;;5.85;;
21868;SDS011;11099;41.564;23.296;2023-04-23T00:49:33;6.60;;;5.93;;
21868;SDS011;11099;41.564;23.296;2023-04-23T00:51:59;7.30;;;6.35;;
21868;SDS011;11099;41.564;23.296;2023-04-23T00:54:25;7.70;;;6.85;;
21868;SDS011;11099;41.564;23.296;2023-04-23T00:56:51;6.50;;;5.80;;
21868;SDS011;11099;41.564;23.296;2023-04-23T00:59:19;6.38;;;5.88;;
21868;SDS011;11099;41.564;23.296;2023-04-23T01:01:44;6.60;;;6.10;;
21868;SDS011;11099;41.564;23.296;2023-04-23T01:04:14;6.60;;;6.03;;
21868;SDS011;11099;41.564;23.296;2023-04-23T01:06:41;7.15;;;6.55;;
21868;SDS011;11099;41.564;23.296;2023-04-23T01:09:10;8.02;;;6.53;;
21868;SDS011;11099;41.564;23.296;2023-04-23T01:11:37;6.82;;;6.03;;
21868;SDS011;11099;41.564;23.296;2023-04-23T01:14:03;6.05;;;5.45;;
21868;SDS011;11099;41.564;23.296;2023-04-23T01:16:29;5.57;;;5.18;;
21868;SDS011;11099;41.564;23.296;2023-04-23T01:18:55;5.68;;;5.28;;
21868;SDS011;11099;41.564;23.296;2023-04-23T01:21:22;5.35;;;4.88;;
21868;SDS011;11099;41.564;23.296;2023-04-23T01:23:49;6.55;;;6.05;;
21868;SDS011;11099;41.564;23.296;2023-04-23T01:26:15;6.15;;;5.65;;
21868;SDS011;11099;41.564;23.296;2023-04-23T01:28:43;6.50;;;6.00;;
21868;SDS011;11099;41.564;23.296;2023-04-23T01:31:09;6.50;;;5.95;;
21868;SDS011;11099;41.564;23.296;2023-04-23T01:33:37;6.47;;;5.97;;
21868;SDS011;11099;41.564;23.296;2023-04-23T01:36:05;6.90;;;6.30;;
21868;SDS011;11099;41.564;23.296;2023-04-23T01:38:32;6.47;;;5.97;;
21868;SDS011;11099;41.564;23.296;2023-04-23T01:40:59;6.85;;;6.35;;
21868;SDS011;11099;41.564;23.296;2023-04-23T01:43:25;6.60;;;5.95;;
21868;SDS011;11099;41.564;23.296;2023-04-23T01:45:51;6.40;;;5.80;;
21868;SDS011;11099;41.564;23.296;2023-04-23T01:48:17;6.43;;;5.63;;
21868;SDS011;11099;41.564;23.296;2023-04-23T01:50:43;5.90;;;5.40;;
21868;SDS011;11099;41.564;23.296;2023-04-23T01:53:08;6.35;;;5.75;;
21868;SDS011;11099;41.564;23.296;2023-04-23T01:55:36;6.88;;;6.28;;
21868;SDS011;11099;41.564;23.296;2023-04-23T01:58:03;5.88;;;5.38;;
21868;SDS011;11099;41.564;23.296;2023-04-23T02:00:28;7.28;;;5.53;;
21868;SDS011;11099;41.564;23.296;2023-04-23T02:02:54;6.57;;;5.88;;
21868;SDS011;11099;41.564;23.296;2023-04-23T02:05:20;6.13;;;5.63;;
21868;SDS011;11099;41.564;23.296;2023-04-23T02:07:46;6.68;;;6.07;;
21868;SDS011;11099;41.564;23.296;2023-04-23T02:10:14;6.55;;;6.05;;
21868;SDS011;11099;41.564;23.296;2023-04-23T02:12:40;6.07;;;5.60;;
21868;SDS011;11099;41.564;23.296;2023-04-23T02:15:06;7.35;;;6.75;;
21868;SDS011;11099;41.564;23.296;2023-04-23T02:17:34;7.65;;;6.90;;
21868;SDS011;11099;41.564;23.296;2023-04-23T02:19:59;7.93;;;7.10;;
21868;SDS011;11099;41.564;23.296;2023-04-23T02:22:25;8.23;;;6.38;;
21868;SDS011;11099;41.564;23.296;2023-04-23T02:24:52;7.03;;;6.32;;
21868;SDS011;11099;41.564;23.296;2023-04-23T02:27:19;6.90;;;6.28;;
21868;SDS011;11099;41.564;23.296;2023-04-23T02:29:45;6.80;;;6.20;;
21868;SDS011;11099;41.564;23.296;2023-04-23T02:32:11;7.97;;;6.40;;
21868;SDS011;11099;41.564;23.296;2023-04-23T02:34:37;7.00;;;6.40;;
21868;SDS011;11099;41.564;23.296;2023-04-23T02:37:03;6.72;;;6.05;;
21868;SDS011;11099;41.564;23.296;2023-04-23T02:39:31;7.22;;;6.53;;
21868;SDS011;11099;41.564;23.296;2023-04-23T02:41:57;7.13;;;6.53;;
21868;SDS011;11099;41.564;23.296;2023-04-23T02:44:23;7.60;;;6.90;;
21868;SDS011;11099;41.564;23.296;2023-04-23T02:46:49;7.78;;;7.07;;
21868;SDS011;11099;41.564;23.296;2023-04-23T02:49:15;7.78;;;7.07;;
21868;SDS011;11099;41.564;23.296;2023-04-23T02:51:41;8.82;;;7.90;;
21868;SDS011;11099;41.564;23.296;2023-04-23T02:54:06;8.45;;;7.57;;
21868;SDS011;11099;41.564;23.296;2023-04-23T02:56:32;8.30;;;7.55;;
21868;SDS011;11099;41.564;23.296;2023-04-23T02:58:58;7.85;;;7.15;;
21868;SDS011;11099;41.564;23.296;2023-04-23T03:01:23;7.97;;;7.28;;
21868;SDS011;11099;41.564;23.296;2023-04-23T03:03:49;7.90;;;7.10;;
21868;SDS011;11099;41.564;23.296;2023-04-23T03:06:15;8.27;;;7.57;;
21868;SDS011;11099;41.564;23.296;2023-04-23T03:08:40;7.78;;;7.10;;
21868;SDS011;11099;41.564;23.296;2023-04-23T03:11:06;8.80;;;7.30;;
21868;SDS011;11099;41.564;23.296;2023-04-23T03:13:31;8.05;;;7.45;;
21868;SDS011;11099;41.564;23.296;2023-04-23T03:15:57;8.48;;;7.50;;
21868;SDS011;11099;41.564;23.296;2023-04-23T03:18:23;8.75;;;6.75;;
21868;SDS011;11099;41.564;23.296;2023-04-23T03:20:48;7.50;;;6.80;;
21868;SDS011;11099;41.564;23.296;2023-04-23T03:23:14;7.03;;;6.50;;
21868;SDS011;11099;41.564;23.296;2023-04-23T03:25:39;7.07;;;6.50;;
21868;SDS011;11099;41.564;23.296;2023-04-23T03:28:05;6.30;;;5.80;;
21868;SDS011;11099;41.564;23.296;2023-04-23T03:30:30;6.40;;;5.90;;
21868;SDS011;11099;41.564;23.296;2023-04-23T03:32:56;8.00;;;6.57;;
21868;SDS011;11099;41.564;23.296;2023-04-23T03:35:22;7.18;;;6.05;;
21868;SDS011;11099;41.564;23.296;2023-04-23T03:37:48;6.93;;;6.22;;
21868;SDS011;11099;41.564;23.296;2023-04-23T03:40:14;7.20;;;6.60;;
21868;SDS011;11099;41.564;23.296;2023-04-23T03:42:40;7.90;;;7.20;;
21868;SDS011;11099;41.564;23.296;2023-04-23T03:45:05;7.15;;;6.55;;
21868;SDS011;11099;41.564;23.296;2023-04-23T03:47:31;8.75;;;6.78;;
21868;SDS011;11099;41.564;23.296;2023-04-23T03:49:57;7.30;;;6.60;;
21868;SDS011;11099;41.564;23.296;2023-04-23T03:52:22;6.68;;;6.07;;
21868;SDS011;11099;41.564;23.296;2023-04-23T03:54:48;9.07;;;6.88;;
21868;SDS011;11099;41.564;23.296;2023-04-23T03:57:13;13.60;;;7.30;;
21868;SDS011;11099;41.564;23.296;2023-04-23T03:59:39;7.43;;;6.80;;
21868;SDS011;11099;41.564;23.296;2023-04-23T04:02:04;8.02;;;7.32;;
21868;SDS011;11099;41.564;23.296;2023-04-23T04:04:30;7.95;;;6.90;;
21868;SDS011;11099;41.564;23.296;2023-04-23T04:06:56;7.72;;;7.10;;
21868;SDS011;11099;41.564;23.296;2023-04-23T04:09:24;7.20;;;6.60;;
21868;SDS011;11099;41.564;23.296;2023-04-23T04:11:50;7.72;;;7.03;;
21868;SDS011;11099;41.564;23.296;2023-04-23T04:14:17;7.55;;;6.85;;
21868;SDS011;11099;41.564;23.296;2023-04-23T04:16:43;8.45;;;7.50;;
21868;SDS011;11099;41.564;23.296;2023-04-23T04:19:08;7.32;;;6.72;;
21868;SDS011;11099;41.564;23.296;2023-04-23T04:21:34;8.13;;;7.32;;
21868;SDS011;11099;41.564;23.296;2023-04-23T04:24:00;7.47;;;6.88;;
21868;SDS011;11099;41.564;23.296;2023-04-23T04:26:26;8.40;;;7.70;;
21868;SDS011;11099;41.564;23.296;2023-04-23T04:28:52;7.78;;;7.05;;
21868;SDS011;11099;41.564;23.296;2023-04-23T04:31:18;8.95;;;7.40;;
21868;SDS011;11099;41.564;23.296;2023-04-23T04:33:47;7.82;;;7.05;;
21868;SDS011;11099;41.564;23.296;2023-04-23T04:36:12;7.22;;;6.05;;
21868;SDS011;11099;41.564;23.296;2023-04-23T04:38:38;7.30;;;5.93;;
21868;SDS011;11099;41.564;23.296;2023-04-23T04:41:04;6.32;;;5.35;;
21868;SDS011;11099;41.564;23.296;2023-04-23T04:43:30;5.50;;;5.10;;
21868;SDS011;11099;41.564;23.296;2023-04-23T04:45:57;5.88;;;5.38;;
21868;SDS011;11099;41.564;23.296;2023-04-23T04:48:23;6.25;;;5.75;;
21868;SDS011;11099;41.564;23.296;2023-04-23T04:50:49;6.97;;;6.38;;
21868;SDS011;11099;41.564;23.296;2023-04-23T04:53:14;6.13;;;5.60;;
21868;SDS011;11099;41.564;23.296;2023-04-23T04:55:40;6.05;;;5.57;;
21868;SDS011;11099;41.564;23.296;2023-04-23T04:58:06;5.35;;;4.93;;
21868;SDS011;11099;41.564;23.296;2023-04-23T05:00:31;5.20;;;4.80;;
21868;SDS011;11099;41.564;23.296;2023-04-23T05:02:57;5.78;;;5.20;;
21868;SDS011;11099;41.564;23.296;2023-04-23T05:05:24;5.95;;;5.45;;
21868;SDS011;11099;41.564;23.296;2023-04-23T05:07:50;8.73;;;5.80;;
21868;SDS011;11099;41.564;23.296;2023-04-23T05:10:18;5.97;;;5.38;;
21868;SDS011;11099;41.564;23.296;2023-04-23T05:12:43;5.80;;;5.40;;
21868;SDS011;11099;41.564;23.296;2023-04-23T05:15:09;4.80;;;4.38;;
21868;SDS011;11099;41.564;23.296;2023-04-23T05:17:39;5.93;;;5.43;;
21868;SDS011;11099;41.564;23.296;2023-04-23T05:20:05;6.32;;;5.72;;
21868;SDS011;11099;41.564;23.296;2023-04-23T05:22:34;5.65;;;5.25;;
21868;SDS011;11099;41.564;23.296;2023-04-23T05:25:03;5.57;;;5.07;;
21868;SDS011;11099;41.564;23.296;2023-04-23T05:27:30;5.18;;;4.78;;
21868;SDS011;11099;41.564;23.296;2023-04-23T05:29:55;10.00;;;5.90;;
21868;SDS011;11099;41.564;23.296;2023-04-23T05:32:21;5.18;;;4.40;;
21868;SDS011;11099;41.564;23.296;2023-04-23T05:34:47;5.82;;;4.78;;
21868;SDS011;11099;41.564;23.296;2023-04-23T05:37:12;5.28;;;4.80;;
21868;SDS011;11099;41.564;23.296;2023-04-23T05:39:38;5.15;;;4.75;;
21868;SDS011;11099;41.564;23.296;2023-04-23T05:42:03;5.88;;;5.38;;
21868;SDS011;11099;41.564;23.296;2023-04-23T05:44:29;6.00;;;5.53;;
21868;SDS011;11099;41.564;23.296;2023-04-23T05:46:54;6.53;;;6.03;;
21868;SDS011;11099;41.564;23.296;2023-04-23T05:49:20;6.78;;;6.18;;
21868;SDS011;11099;41.564;23.296;2023-04-23T05:51:45;7.03;;;6.07;;
21868;SDS011;11099;41.564;23.296;2023-04-23T05:54:11;6.90;;;6.20;;
21868;SDS011;11099;41.564;23.296;2023-04-23T05:56:37;8.60;;;6.68;;
21868;SDS011;11099;41.564;23.296;2023-04-23T05:59:03;8.77;;;7.55;;
21868;SDS011;11099;41.564;23.296;2023-04-23T06:01:28;15.27;;;11.95;;
21868;SDS011;11099;41.564;23.296;2023-04-23T06:03:54;7.63;;;6.93;;
21868;SDS011;11099;41.564;23.296;2023-04-23T06:06:19;7.53;;;6.72;;
21868;SDS011;11099;41.564;23.296;2023-04-23T06:08:45;7.82;;;7.22;;
21868;SDS011;11099;41.564;23.296;2023-04-23T06:11:10;12.05;;;6.93;;
21868;SDS011;11099;41.564;23.296;2023-04-23T06:13:35;7.32;;;6.63;;
21868;SDS011;11099;41.564;23.296;2023-04-23T06:16:05;8.80;;;8.00;;
21868;SDS011;11099;41.564;23.296;2023-04-23T06:18:32;8.80;;;8.00;;
21868;SDS011;11099;41.564;23.296;2023-04-23T06:20:58;8.43;;;7.57;;
21868;SDS011;11099;41.564;23.296;2023-04-23T06:23:28;9.15;;;8.23;;
21868;SDS011;11099;41.564;23.296;2023-04-23T06:25:57;13.07;;;11.10;;
21868;SDS011;11099;41.564;23.296;2023-04-23T06:28:23;16.92;;;15.13;;
21868;SDS011;11099;41.564;23.296;2023-04-23T06:30:48;24.13;;;15.93;;
21868;SDS011;11099;41.564;23.296;2023-04-23T06:33:18;21.10;;;17.60;;
21868;SDS011;11099;41.564;23.296;2023-04-23T06:35:43;29.02;;;25.23;;
21868;SDS011;11099;41.564;23.296;2023-04-23T06:38:11;24.33;;;21.63;;
21868;SDS011;11099;41.564;23.296;2023-04-23T06:40:36;26.10;;;22.67;;
21868;SDS011;11099;41.564;23.296;2023-04-23T06:43:02;25.05;;;22.27;;
21868;SDS011;11099;41.564;23.296;2023-04-23T06:45:32;20.13;;;18.13;;
21868;SDS011;11099;41.564;23.296;2023-04-23T06:47:58;15.25;;;13.73;;
21868;SDS011;11099;41.564;23.296;2023-04-23T06:50:24;13.48;;;12.18;;
21868;SDS011;11099;41.564;23.296;2023-04-23T06:52:51;12.68;;;11.50;;
21868;SDS011;11099;41.564;23.296;2023-04-23T06:55:17;13.68;;;11.93;;
21868;SDS011;11099;41.564;23.296;2023-04-23T06:57:42;10.65;;;9.75;;
21868;SDS011;11099;41.564;23.296;2023-04-23T07:00:08;12.25;;;11.07;;
21868;SDS011;11099;41.564;23.296;2023-04-23T07:02:35;13.38;;;12.02;;
21868;SDS011;11099;41.564;23.296;2023-04-23T07:05:01;15.20;;;13.63;;
21868;SDS011;11099;41.564;23.296;2023-04-23T07:07:26;17.30;;;15.60;;
21868;SDS011;11099;41.564;23.296;2023-04-23T07:09:52;16.65;;;15.05;;
21868;SDS011;11099;41.564;23.296;2023-04-23T07:12:18;11.05;;;10.15;;
21868;SDS011;11099;41.564;23.296;2023-04-23T07:14:44;11.27;;;10.27;;
21868;SDS011;11099;41.564;23.296;2023-04-23T07:17:09;9.60;;;8.70;;
21868;SDS011;11099;41.564;23.296;2023-04-23T07:19:35;11.88;;;9.65;;
21868;SDS011;11099;41.564;23.296;2023-04-23T07:22:01;10.95;;;9.93;;
21868;SDS011;11099;41.564;23.296;2023-04-23T07:24:27;11.93;;;10.63;;
21868;SDS011;11099;41.564;23.296;2023-04-23T07:26:52;9.60;;;8.77;;
21868;SDS011;11099;41.564;23.296;2023-04-23T07:29:18;9.65;;;8.60;;
21868;SDS011;11099;41.564;23.296;2023-04-23T07:31:44;9.25;;;8.40;;
21868;SDS011;11099;41.564;23.296;2023-04-23T07:34:10;9.10;;;8.30;;
21868;SDS011;11099;41.564;23.296;2023-04-23T07:36:36;9.35;;;8.55;;
21868;SDS011;11099;41.564;23.296;2023-04-23T07:39:01;7.97;;;7.28;;
21868;SDS011;11099;41.564;23.296;2023-04-23T07:41:28;8.27;;;7.47;;
21868;SDS011;11099;41.564;23.296;2023-04-23T07:43:53;8.27;;;7.50;;
21868;SDS011;11099;41.564;23.296;2023-04-23T07:46:20;9.10;;;8.20;;
21868;SDS011;11099;41.564;23.296;2023-04-23T07:48:45;6.38;;;5.75;;
21868;SDS011;11099;41.564;23.296;2023-04-23T07:51:11;8.88;;;7.82;;
21868;SDS011;11099;41.564;23.296;2023-04-23T07:53:36;8.77;;;7.82;;
21868;SDS011;11099;41.564;23.296;2023-04-23T07:56:02;9.15;;;8.25;;
21868;SDS011;11099;41.564;23.296;2023-04-23T07:58:27;8.52;;;7.75;;
21868;SDS011;11099;41.564;23.296;2023-04-23T08:00:53;8.05;;;7.25;;
21868;SDS011;11099;41.564;23.296;2023-04-23T08:03:18;7.70;;;7.10;;
21868;SDS011;11099;41.564;23.296;2023-04-23T08:05:44;8.68;;;7.57;;
21868;SDS011;11099;41.564;23.296;2023-04-23T08:08:10;8.13;;;7.32;;
21868;SDS011;11099;41.564;23.296;2023-04-23T08:10:37;8.50;;;7.45;;
21868;SDS011;11099;41.564;23.296;2023-04-23T08:13:02;6.50;;;6.00;;
21868;SDS011;11099;41.564;23.296;2023-04-23T08:15:28;6.35;;;5.85;;
21868;SDS011;11099;41.564;23.296;2023-04-23T08:17:53;7.22;;;6.63;;
21868;SDS011;11099;41.564;23.296;2023-04-23T08:20:19;6.95;;;6.25;;
21868;SDS011;11099;41.564;23.296;2023-04-23T08:22:45;8.68;;;6.85;;
21868;SDS011;11099;41.564;23.296;2023-04-23T08:25:10;7.28;;;6.68;;
21868;SDS011;11099;41.564;23.296;2023-04-23T08:27:37;6.95;;;6.35;;
21868;SDS011;11099;41.564;23.296;2023-04-23T08:30:03;6.93;;;6.25;;
21868;SDS011;11099;41.564;23.296;2023-04-23T08:32:31;7.93;;;6.80;;
21868;SDS011;11099;41.564;23.296;2023-04-23T08:34:56;8.07;;;7.28;;
21868;SDS011;11099;41.564;23.296;2023-04-23T08:37:23;7.47;;;6.85;;
21868;SDS011;11099;41.564;23.296;2023-04-23T08:39:48;7.25;;;6.75;;
21868;SDS011;11099;41.564;23.296;2023-04-23T08:42:15;7.40;;;6.80;;
21868;SDS011;11099;41.564;23.296;2023-04-23T08:44:47;6.40;;;5.80;;
21868;SDS011;11099;41.564;23.296;2023-04-23T08:47:16;5.88;;;5.15;;
21868;SDS011;11099;41.564;23.296;2023-04-23T08:49:44;6.20;;;5.13;;
21868;SDS011;11099;41.564;23.296;2023-04-23T08:52:18;5.63;;;5.18;;
21868;SDS011;11099;41.564;23.296;2023-04-23T08:54:48;4.45;;;4.15;;
21868;SDS011;11099;41.564;23.296;2023-04-23T08:57:19;5.10;;;4.70;;
21868;SDS011;11099;41.564;23.296;2023-04-23T08:59:45;5.32;;;4.82;;
21868;SDS011;11099;41.564;23.296;2023-04-23T09:02:13;7.72;;;5.55;;
21868;SDS011;11099;41.564;23.296;2023-04-23T09:04:40;6.57;;;5.97;;
21868;SDS011;11099;41.564;23.296;2023-04-23T09:07:06;6.38;;;5.88;;
21868;SDS011;11099;41.564;23.296;2023-04-23T09:09:38;6.80;;;6.25;;
21868;SDS011;11099;41.564;23.296;2023-04-23T09:12:05;8.13;;;6.03;;
21868;SDS011;11099;41.564;23.296;2023-04-23T09:14:32;6.70;;;6.20;;
21868;SDS011;11099;41.564;23.296;2023-04-23T09:16:58;6.63;;;6.03;;
21868;SDS011;11099;41.564;23.296;2023-04-23T09:19:25;6.07;;;5.57;;
21868;SDS011;11099;41.564;23.296;2023-04-23T09:21:53;5.10;;;4.60;;
21868;SDS011;11099;41.564;23.296;2023-04-23T09:24:22;5.82;;;5.32;;
21868;SDS011;11099;41.564;23.296;2023-04-23T09:26:49;5.47;;;5.07;;
21868;SDS011;11099;41.564;23.296;2023-04-23T09:29:19;5.50;;;5.00;;
21868;SDS011;11099;41.564;23.296;2023-04-23T09:31:48;5.00;;;4.60;;
21868;SDS011;11099;41.564;23.296;2023-04-23T09:34:15;6.03;;;4.50;;
21868;SDS011;11099;41.564;23.296;2023-04-23T09:36:46;6.80;;;4.35;;
21868;SDS011;11099;41.564;23.296;2023-04-23T09:39:15;4.07;;;3.88;;
21868;SDS011;11099;41.564;23.296;2023-04-23T09:41:42;4.10;;;3.80;;
21868;SDS011;11099;41.564;23.296;2023-04-23T09:44:09;4.88;;;3.60;;
21868;SDS011;11099;41.564;23.296;2023-04-23T09:46:41;4.32;;;4.03;;
21868;SDS011;11099;41.564;23.296;2023-04-23T09:49:08;4.47;;;4.10;;
21868;SDS011;11099;41.564;23.296;2023-04-23T09:51:45;4.60;;;4.30;;
21868;SDS011;11099;41.564;23.296;2023-04-23T09:56:40;4.95;;;4.55;;
21868;SDS011;11099;41.564;23.296;2023-04-23T09:59:28;4.90;;;3.53;;
21868;SDS011;11099;41.564;23.296;2023-04-23T10:01:53;3.85;;;3.47;;
21868;SDS011;11099;41.564;23.296;2023-04-23T10:04:20;3.78;;;3.50;;
21868;SDS011;11099;41.564;23.296;2023-04-23T10:07:07;4.53;;;4.03;;
21868;SDS011;11099;41.564;23.296;2023-04-23T10:09:38;3.97;;;3.67;;
21868;SDS011;11099;41.564;23.296;2023-04-23T10:12:05;4.15;;;3.85;;
21868;SDS011;11099;41.564;23.296;2023-04-23T10:14:32;5.85;;;3.83;;
21868;SDS011;11099;41.564;23.296;2023-04-23T10:16:59;4.10;;;3.80;;
21868;SDS011;11099;41.564;23.296;2023-04-23T10:19:26;4.80;;;3.95;;
21868;SDS011;11099;41.564;23.296;2023-04-23T10:21:56;4.25;;;3.92;;
21868;SDS011;11099;41.564;23.296;2023-04-23T10:24:33;4.43;;;4.03;;
21868;SDS011;11099;41.564;23.296;2023-04-23T10:27:01;4.32;;;4.03;;
21868;SDS011;11099;41.564;23.296;2023-04-23T10:29:31;3.90;;;3.67;;
21868;SDS011;11099;41.564;23.296;2023-04-23T10:31:58;3.85;;;3.60;;
21868;SDS011;11099;41.564;23.296;2023-04-23T10:34:26;3.78;;;3.47;;
21868;SDS011;11099;41.564;23.296;2023-04-23T10:36:53;4.03;;;3.58;;
21868;SDS011;11099;41.564;23.296;2023-04-23T10:39:21;4.43;;;3.70;;
21868;SDS011;11099;41.564;23.296;2023-04-23T10:41:49;4.28;;;3.88;;
21868;SDS011;11099;41.564;23.296;2023-04-23T10:44:18;4.60;;;3.40;;
21868;SDS011;11099;41.564;23.296;2023-04-23T10:46:52;5.53;;;3.72;;
21868;SDS011;11099;41.564;23.296;2023-04-23T10:49:22;3.45;;;3.15;;
21868;SDS011;11099;41.564;23.296;2023-04-23T10:51:48;6.75;;;4.05;;
21868;SDS011;11099;41.564;23.296;2023-04-23T10:54:18;4.05;;;3.75;;
21868;SDS011;11099;41.564;23.296;2023-04-23T10:56:44;3.35;;;3.13;;
21868;SDS011;11099;41.564;23.296;2023-04-23T10:59:19;4.93;;;3.47;;
21868;SDS011;11099;41.564;23.296;2023-04-23T11:01:46;6.32;;;3.22;;
21868;SDS011;11099;41.564;23.296;2023-04-23T11:04:18;4.55;;;4.25;;
21868;SDS011;11099;41.564;23.296;2023-04-23T11:09:46;4.10;;;3.80;;
21868;SDS011;11099;41.564;23.296;2023-04-23T11:12:11;3.90;;;3.67;;
21868;SDS011;11099;41.564;23.296;2023-04-23T11:14:50;5.00;;;3.63;;
21868;SDS011;11099;41.564;23.296;2023-04-23T11:17:22;4.57;;;4.18;;
21868;SDS011;11099;41.564;23.296;2023-04-23T11:22:37;4.30;;;4.00;;
21868;SDS011;11099;41.564;23.296;2023-04-23T11:25:20;3.67;;;3.47;;
21868;SDS011;11099;41.564;23.296;2023-04-23T11:27:47;3.67;;;3.38;;
21868;SDS011;11099;41.564;23.296;2023-04-23T11:30:18;5.88;;;3.80;;
21868;SDS011;11099;41.564;23.296;2023-04-23T11:32:49;4.53;;;3.60;;
21868;SDS011;11099;41.564;23.296;2023-04-23T11:35:16;3.47;;;3.20;;
21868;SDS011;11099;41.564;23.296;2023-04-23T11:37:43;5.10;;;3.22;;
21868;SDS011;11099;41.564;23.296;2023-04-23T11:40:10;3.95;;;3.55;;
21868;SDS011;11099;41.564;23.296;2023-04-23T11:42:43;4.05;;;3.70;;
21868;SDS011;11099;41.564;23.296;2023-04-23T11:45:17;4.13;;;3.83;;
21868;SDS011;11099;41.564;23.296;2023-04-23T11:47:44;5.88;;;4.22;;
21868;SDS011;11099;41.564;23.296;2023-04-23T11:50:20;5.50;;;4.28;;
21868;SDS011;11099;41.564;23.296;2023-04-23T11:52:50;5.10;;;4.68;;
21868;SDS011;11099;41.564;23.296;2023-04-23T11:55:17;3.78;;;3.47;;
21868;SDS011;11099;41.564;23.296;2023-04-23T11:57:43;4.30;;;4.00;;
21868;SDS011;11099;41.564;23.296;2023-04-23T12:00:11;3.72;;;3.45;;
21868;SDS011;11099;41.564;23.296;2023-04-23T12:02:48;4.30;;;3.92;;
21868;SDS011;11099;41.564;23.296;2023-04-23T12:07:52;3.55;;;3.25;;
21868;SDS011;11099;41.564;23.296;2023-04-23T12:10:18;4.18;;;3.70;;
21868;SDS011;11099;41.564;23.296;2023-04-23T12:12:49;4.15;;;3.83;;
21868;SDS011;11099;41.564;23.296;2023-04-23T12:15:15;4.47;;;3.83;;
21868;SDS011;11099;41.564;23.296;2023-04-23T12:17:41;6.05;;;2.85;;
21868;SDS011;11099;41.564;23.296;2023-04-23T12:20:10;3.28;;;2.97;;
21868;SDS011;11099;41.564;23.296;2023-04-23T12:22:40;3.60;;;3.30;;
21868;SDS011;11099;41.564;23.296;2023-04-23T12:25:05;3.97;;;3.30;;
21868;SDS011;11099;41.564;23.296;2023-04-23T12:27:37;3.35;;;2.90;;
21868;SDS011;11099;41.564;23.296;2023-04-23T12:30:08;5.13;;;3.00;;
21868;SDS011;11099;41.564;23.296;2023-04-23T12:32:35;3.50;;;3.20;;
21868;SDS011;11099;41.564;23.296;2023-04-23T12:35:01;3.30;;;3.00;;
21868;SDS011;11099;41.564;23.296;2023-04-23T12:37:30;3.58;;;3.28;;
21868;SDS011;11099;41.564;23.296;2023-04-23T12:40:00;4.00;;;3.60;;
21868;SDS011;11099;41.564;23.296;2023-04-23T12:42:25;3.22;;;2.97;;
21868;SDS011;11099;41.564;23.296;2023-04-23T12:44:51;3.75;;;2.80;;
21868;SDS011;11099;41.564;23.296;2023-04-23T12:47:19;3.53;;;3.17;;
21868;SDS011;11099;41.564;23.296;2023-04-23T12:49:44;5.70;;;5.20;;
21868;SDS011;11099;41.564;23.296;2023-04-23T12:52:11;4.50;;;4.10;;
21868;SDS011;11099;41.564;23.296;2023-04-23T12:54:37;4.93;;;3.60;;
21868;SDS011;11099;41.564;23.296;2023-04-23T12:57:04;11.43;;;5.05;;
21868;SDS011;11099;41.564;23.296;2023-04-23T12:59:31;4.38;;;3.60;;
21868;SDS011;11099;41.564;23.296;2023-04-23T13:01:57;5.25;;;3.13;;
21868;SDS011;11099;41.564;23.296;2023-04-23T13:06:55;3.35;;;3.05;;
21868;SDS011;11099;41.564;23.296;2023-04-23T13:09:21;3.88;;;3.28;;
21868;SDS011;11099;41.564;23.296;2023-04-23T13:11:48;5.88;;;4.78;;
21868;SDS011;11099;41.564;23.296;2023-04-23T13:14:14;3.95;;;3.50;;
21868;SDS011;11099;41.564;23.296;2023-04-23T13:16:40;4.72;;;4.07;;
21868;SDS011;11099;41.564;23.296;2023-04-23T13:19:06;4.32;;;3.88;;
21868;SDS011;11099;41.564;23.296;2023-04-23T13:21:32;3.63;;;3.30;;
21868;SDS011;11099;41.564;23.296;2023-04-23T13:23:57;8.55;;;5.90;;
21868;SDS011;11099;41.564;23.296;2023-04-23T13:26:23;6.25;;;4.40;;
21868;SDS011;11099;41.564;23.296;2023-04-23T13:28:48;4.30;;;3.40;;
21868;SDS011;11099;41.564;23.296;2023-04-23T13:31:14;3.83;;;3.53;;
21868;SDS011;11099;41.564;23.296;2023-04-23T13:33:40;4.07;;;3.72;;
21868;SDS011;11099;41.564;23.296;2023-04-23T13:36:06;6.25;;;3.60;;
21868;SDS011;11099;41.564;23.296;2023-04-23T13:38:31;4.55;;;3.40;;
21868;SDS011;11099;41.564;23.296;2023-04-23T13:40:57;4.10;;;3.45;;
21868;SDS011;11099;41.564;23.296;2023-04-23T13:43:23;3.75;;;3.45;;
21868;SDS011;11099;41.564;23.296;2023-04-23T13:45:48;3.83;;;3.40;;
21868;SDS011;11099;41.564;23.296;2023-04-23T13:48:14;4.05;;;3.63;;
21868;SDS011;11099;41.564;23.296;2023-04-23T13:50:40;4.55;;;4.15;;
21868;SDS011;11099;41.564;23.296;2023-04-23T13:53:07;3.92;;;3.63;;
21868;SDS011;11099;41.564;23.296;2023-04-23T13:55:33;3.67;;;3.38;;
21868;SDS011;11099;41.564;23.296;2023-04-23T13:57:59;4.10;;;3.78;;
21868;SDS011;11099;41.564;23.296;2023-04-23T14:00:25;3.78;;;3.33;;
21868;SDS011;11099;41.564;23.296;2023-04-23T14:02:52;4.95;;;4.10;;
21868;SDS011;11099;41.564;23.296;2023-04-23T14:05:17;4.65;;;3.83;;
21868;SDS011;11099;41.564;23.296;2023-04-23T14:07:43;5.72;;;3.00;;
21868;SDS011;11099;41.564;23.296;2023-04-23T14:10:09;7.07;;;3.28;;
21868;SDS011;11099;41.564;23.296;2023-04-23T14:12:34;3.95;;;3.65;;
21868;SDS011;11099;41.564;23.296;2023-04-23T14:15:01;4.60;;;3.35;;
21868;SDS011;11099;41.564;23.296;2023-04-23T14:17:27;3.65;;;3.35;;
21868;SDS011;11099;41.564;23.296;2023-04-23T14:19:52;6.25;;;5.65;;
21868;SDS011;11099;41.564;23.296;2023-04-23T14:22:17;6.63;;;4.50;;
21868;SDS011;11099;41.564;23.296;2023-04-23T14:24:48;4.05;;;3.65;;
21868;SDS011;11099;41.564;23.296;2023-04-23T14:27:15;3.45;;;3.17;;
21868;SDS011;11099;41.564;23.296;2023-04-23T14:32:14;2.83;;;2.63;;
21868;SDS011;11099;41.564;23.296;2023-04-23T14:34:40;3.65;;;3.05;;
21868;SDS011;11099;41.564;23.296;2023-04-23T14:37:05;3.47;;;2.90;;
21868;SDS011;11099;41.564;23.296;2023-04-23T14:39:32;2.92;;;2.63;;
21868;SDS011;11099;41.564;23.296;2023-04-23T14:41:58;3.45;;;3.17;;
21868;SDS011;11099;41.564;23.296;2023-04-23T14:44:23;3.35;;;3.00;;
21868;SDS011;11099;41.564;23.296;2023-04-23T14:46:53;3.50;;;3.20;;